createdAt,value
2022-08-12T00:00:09.842Z,18.60
2022-08-12T00:02:55.848Z,18.60
2022-08-12T00:05:58.281Z,18.60
2022-08-12T00:08:51.720Z,18.60
2022-08-12T00:11:39.266Z,18.50
2022-08-12T00:14:25.374Z,18.40
2022-08-12T00:17:12.088Z,18.30
2022-08-12T00:19:58.182Z,18.20
2022-08-12T00:22:46.379Z,18.20
2022-08-12T00:26:21.630Z,18.20
2022-08-12T00:29:05.611Z,18.10
2022-08-12T00:31:51.712Z,18.10
2022-08-12T00:34:38.335Z,18.00
2022-08-12T00:37:25.267Z,18.00
2022-08-12T00:40:14.724Z,17.90
2022-08-12T00:42:43.032Z,18.00
2022-08-12T00:45:10.957Z,17.90
2022-08-12T00:47:39.569Z,17.90
2022-08-12T00:50:09.262Z,17.80
2022-08-12T00:52:36.859Z,17.80
2022-08-12T00:55:06.100Z,17.80
2022-08-12T00:57:38.842Z,17.70
2022-08-12T01:00:08.520Z,17.70
2022-08-12T01:02:40.363Z,17.60
2022-08-12T01:05:29.639Z,17.50
2022-08-12T01:08:17.311Z,17.50
2022-08-12T01:11:05.295Z,17.50
2022-08-12T01:13:38.975Z,17.40
2022-08-12T01:16:08.431Z,17.30
2022-08-12T01:18:38.170Z,17.20
2022-08-12T01:21:27.437Z,17.20
2022-08-12T01:24:30.935Z,17.10
2022-08-12T01:27:01.409Z,17.00
2022-08-12T01:29:35.066Z,17.00
2022-08-12T01:32:10.162Z,17.00
2022-08-12T01:34:41.221Z,16.90
2022-08-12T01:37:10.130Z,16.90
2022-08-12T01:40:31.518Z,16.90
2022-08-12T01:42:48.137Z,16.80
2022-08-12T01:45:22.984Z,16.80
2022-08-12T01:48:05.983Z,16.80
2022-08-12T01:50:36.924Z,16.80
2022-08-12T01:53:06.469Z,16.70
2022-08-12T01:55:38.340Z,16.70
2022-08-12T01:58:29.066Z,16.80
2022-08-12T02:01:11.593Z,16.70
2022-08-12T02:04:05.502Z,16.70
2022-08-12T02:07:12.215Z,16.70
2022-08-12T02:10:50.923Z,16.70
2022-08-12T02:13:48.878Z,16.60
2022-08-12T02:16:46.411Z,16.50
2022-08-12T02:19:32.372Z,16.50
2022-08-12T02:22:29.988Z,16.50
2022-08-12T02:25:09.694Z,16.50
2022-08-12T02:27:45.649Z,16.40
2022-08-12T02:30:17.251Z,16.30
2022-08-12T02:32:45.960Z,16.20
2022-08-12T02:35:23.051Z,16.10
2022-08-12T02:37:53.082Z,16.10
2022-08-12T02:40:22.166Z,16.10
2022-08-12T02:43:04.422Z,16.10
2022-08-12T02:46:10.484Z,16.10
2022-08-12T02:48:51.813Z,16.00
2022-08-12T02:51:23.882Z,16.00
2022-08-12T02:54:02.875Z,16.00
2022-08-12T02:56:34.631Z,16.00
2022-08-12T02:59:02.571Z,15.90
2022-08-12T03:01:35.651Z,15.90
2022-08-12T03:04:20.574Z,15.90
2022-08-12T03:06:58.273Z,15.80
2022-08-12T03:09:28.733Z,15.80
2022-08-12T03:12:09.868Z,15.80
2022-08-12T03:14:44.759Z,15.70
2022-08-12T03:17:22.218Z,15.70
2022-08-12T03:20:08.639Z,15.60
2022-08-12T03:22:43.635Z,15.60
2022-08-12T03:25:34.573Z,15.50
2022-08-12T03:28:03.937Z,15.60
2022-08-12T03:30:32.985Z,15.50
2022-08-12T03:33:02.695Z,15.50
2022-08-12T03:35:40.029Z,15.50
2022-08-12T03:38:12.400Z,15.50
2022-08-12T03:41:27.123Z,15.50
2022-08-12T03:44:48.586Z,15.50
2022-08-12T03:47:52.517Z,15.50
2022-08-12T03:50:39.824Z,15.40
2022-08-12T03:53:27.882Z,15.30
2022-08-12T03:56:14.652Z,15.30
2022-08-12T03:59:00.548Z,15.30
2022-08-12T04:01:28.214Z,15.20
2022-08-12T04:03:55.983Z,15.20
2022-08-12T04:06:34.814Z,15.20
2022-08-12T04:09:14.898Z,15.20
2022-08-12T04:12:04.542Z,15.20
2022-08-12T04:14:33.333Z,15.20
2022-08-12T04:17:03.359Z,15.20
2022-08-12T04:19:31.724Z,15.20
2022-08-12T04:22:01.840Z,15.20
2022-08-12T04:24:36.322Z,15.20
2022-08-12T04:27:07.333Z,15.20
2022-08-12T04:30:29.373Z,15.20
2022-08-12T04:32:22.987Z,15.10
2022-08-12T04:34:51.764Z,15.00
2022-08-12T04:37:19.597Z,15.00
2022-08-12T04:39:48.326Z,15.00
2022-08-12T04:42:16.259Z,15.00
2022-08-12T04:44:44.508Z,15.00
2022-08-12T04:47:16.598Z,15.00
2022-08-12T04:49:46.441Z,15.00
2022-08-12T04:52:14.536Z,15.00
2022-08-12T04:54:44.093Z,15.00
2022-08-12T04:57:11.835Z,15.00
2022-08-12T04:59:47.562Z,15.00
2022-08-12T05:02:22.138Z,15.00
2022-08-12T05:04:52.232Z,15.00
2022-08-12T05:07:20.870Z,15.00
2022-08-12T05:10:00.670Z,15.10
2022-08-12T05:12:37.905Z,15.10
2022-08-12T05:15:19.582Z,15.10
2022-08-12T05:17:55.948Z,15.10
2022-08-12T05:20:26.121Z,15.10
2022-08-12T05:23:12.949Z,15.10
2022-08-12T05:25:43.370Z,15.10
2022-08-12T05:28:13.153Z,15.20
2022-08-12T05:30:42.739Z,15.20
2022-08-12T05:33:12.457Z,15.20
2022-08-12T05:35:42.883Z,15.20
2022-08-12T05:38:31.686Z,15.20
2022-08-12T05:41:00.416Z,15.30
2022-08-12T05:43:28.840Z,15.40
2022-08-12T05:45:56.809Z,15.50
2022-08-12T05:48:24.568Z,15.50
2022-08-12T05:50:53.187Z,15.60
2022-08-12T05:53:20.815Z,15.70
2022-08-12T05:55:52.736Z,15.70
2022-08-12T05:58:21.295Z,15.80
2022-08-12T06:00:48.832Z,15.90
2022-08-12T06:03:19.476Z,16.00
2022-08-12T06:05:55.243Z,16.10
2022-08-12T06:08:24.882Z,16.20
2022-08-12T06:10:52.965Z,16.40
2022-08-12T06:13:28.388Z,16.50
2022-08-12T06:16:09.903Z,16.60
2022-08-12T06:18:40.117Z,16.80
2022-08-12T06:21:13.023Z,16.90
2022-08-12T06:23:42.874Z,17.00
2022-08-12T06:26:12.968Z,17.10
2022-08-12T06:28:44.601Z,17.20
2022-08-12T06:31:26.950Z,17.30
2022-08-12T06:34:52.937Z,17.40
2022-08-12T06:36:44.356Z,17.60
2022-08-12T06:39:15.065Z,17.80
2022-08-12T06:42:28.547Z,17.90
2022-08-12T06:44:50.466Z,18.10
2022-08-12T06:47:19.525Z,18.40
2022-08-12T06:49:48.625Z,18.50
2022-08-12T06:52:17.349Z,18.70
2022-08-12T06:54:45.775Z,18.90
2022-08-12T06:58:05.937Z,19.10
2022-08-12T07:00:00.875Z,19.30
2022-08-12T07:02:29.978Z,19.50
2022-08-12T07:05:00.214Z,19.70
2022-08-12T07:07:27.832Z,19.90
2022-08-12T07:10:05.154Z,20.10
2022-08-12T07:12:35.227Z,20.30
2022-08-12T07:15:02.884Z,20.50
2022-08-12T07:17:37.830Z,20.80
2022-08-12T07:20:29.462Z,21.00
2022-08-12T07:22:59.278Z,21.20
2022-08-12T07:25:40.497Z,21.50
2022-08-12T07:28:23.420Z,21.70
2022-08-12T07:30:52.847Z,21.90
2022-08-12T07:33:23.453Z,22.10
2022-08-12T07:35:54.009Z,22.30
2022-08-12T07:38:33.694Z,22.50
2022-08-12T07:41:02.223Z,22.80
2022-08-12T07:43:31.457Z,22.90
2022-08-12T07:46:00.729Z,23.10
2022-08-12T07:48:28.344Z,23.30
2022-08-12T07:50:55.917Z,23.40
2022-08-12T07:53:23.423Z,23.60
2022-08-12T07:55:51.046Z,23.70
2022-08-12T07:58:18.611Z,23.90
2022-08-12T08:00:46.144Z,24.00
2022-08-12T08:03:13.630Z,24.10
2022-08-12T08:05:46.506Z,24.30
2022-08-12T08:08:20.574Z,24.40
2022-08-12T08:10:50.149Z,24.60
2022-08-12T08:13:18.451Z,24.70
2022-08-12T08:16:02.475Z,24.80
2022-08-12T08:18:31.449Z,25.00
2022-08-12T08:20:59.115Z,25.10
2022-08-12T08:23:46.961Z,25.20
2022-08-12T08:26:24.903Z,25.40
2022-08-12T08:28:53.094Z,25.60
2022-08-12T08:31:21.639Z,25.70
2022-08-12T08:34:09.214Z,25.80
2022-08-12T08:36:37.609Z,25.90
2022-08-12T08:39:07.718Z,25.90
2022-08-12T08:42:16.029Z,26.10
2022-08-12T08:44:42.916Z,26.20
2022-08-12T08:47:13.044Z,26.40
2022-08-12T08:49:40.904Z,26.60
2022-08-12T08:52:11.994Z,26.80
2022-08-12T08:54:40.694Z,26.90
2022-08-12T08:57:08.704Z,27.10
2022-08-12T08:59:36.621Z,27.20
2022-08-12T09:02:04.430Z,27.30
2022-08-12T09:05:11.778Z,27.40
2022-08-12T09:07:43.776Z,27.60
2022-08-12T09:16:07.080Z,28.10
2022-08-12T09:18:35.839Z,28.10
2022-08-12T09:21:06.408Z,28.10
2022-08-12T09:24:00.274Z,28.30
2022-08-12T09:26:28.719Z,28.50
2022-08-12T09:29:00.770Z,28.50
2022-08-12T09:32:03.264Z,28.60
2022-08-12T09:34:31.065Z,28.70
2022-08-12T09:37:19.602Z,28.80
2022-08-12T09:40:05.030Z,29.00
2022-08-12T09:43:16.093Z,29.20
2022-08-12T09:46:06.087Z,29.40
2022-08-12T09:48:40.102Z,29.50
2022-08-12T09:51:21.585Z,29.50
2022-08-12T09:54:08.975Z,29.60
2022-08-12T09:56:58.968Z,29.90
2022-08-12T10:00:15.483Z,30.20
2022-08-12T10:02:45.732Z,30.60
2022-08-12T10:05:05.265Z,30.90
2022-08-12T10:07:39.652Z,31.30
2022-08-12T10:10:23.995Z,31.50
2022-08-12T10:13:35.131Z,31.80
2022-08-12T10:16:04.704Z,32.20
2022-08-12T10:18:37.367Z,32.70
2022-08-12T10:21:36.493Z,33.00
2022-08-12T10:24:10.004Z,33.50
2022-08-12T10:26:58.308Z,33.90
2022-08-12T10:30:37.672Z,34.10
2022-08-12T10:32:43.974Z,34.40
2022-08-12T10:35:15.462Z,34.50
2022-08-12T10:38:36.565Z,34.70
2022-08-12T10:40:37.637Z,35.00
2022-08-12T10:43:23.927Z,35.30
2022-08-12T10:45:58.255Z,35.50
2022-08-12T10:48:33.867Z,35.70
2022-08-12T10:52:02.679Z,36.00
2022-08-12T10:54:00.275Z,36.30
2022-08-12T10:56:34.459Z,36.70
2022-08-12T10:59:11.123Z,37.00
2022-08-12T11:04:16.806Z,37.20
2022-08-12T11:04:49.131Z,37.40
2022-08-12T11:08:36.143Z,37.50
2022-08-12T11:10:05.719Z,37.70
2022-08-12T11:12:55.745Z,37.80
2022-08-12T11:15:33.295Z,38.10
2022-08-12T11:18:11.586Z,38.20
2022-08-12T11:20:40.321Z,38.30
2022-08-12T11:23:24.954Z,38.50
2022-08-12T11:26:04.980Z,38.60
2022-08-12T11:28:37.646Z,38.40
2022-08-12T11:31:09.847Z,38.40
2022-08-12T11:34:05.100Z,38.50
2022-08-12T11:36:29.307Z,38.60
2022-08-12T11:38:58.407Z,38.60
2022-08-12T11:41:31.497Z,38.80
2022-08-12T11:44:34.996Z,38.90
2022-08-12T11:46:54.039Z,39.20
2022-08-12T11:49:30.540Z,39.40
2022-08-12T11:52:01.704Z,39.40
2022-08-12T11:54:30.265Z,39.30
2022-08-12T11:57:02.332Z,39.50
2022-08-12T12:02:21.301Z,39.60
2022-08-12T12:04:52.645Z,39.50
2022-08-12T12:07:22.791Z,39.60
2022-08-12T12:10:13.275Z,39.50
2022-08-12T12:12:50.141Z,39.40
2022-08-12T12:15:25.188Z,39.50
2022-08-12T12:18:06.762Z,39.70
2022-08-12T12:20:35.017Z,40.10
2022-08-12T12:23:03.989Z,40.50
2022-08-12T12:25:59.362Z,40.50
2022-08-12T12:28:35.299Z,40.20
2022-08-12T12:31:14.516Z,40.20
2022-08-12T12:33:58.369Z,40.10
2022-08-12T12:36:30.207Z,40.00
2022-08-12T12:39:00.385Z,40.10
2022-08-12T12:42:42.551Z,40.30
2022-08-12T12:44:26.117Z,40.50
2022-08-12T12:47:29.222Z,40.80
2022-08-12T12:49:53.571Z,40.70
2022-08-12T12:52:21.519Z,40.70
2022-08-12T12:54:58.715Z,40.80
2022-08-12T12:57:58.937Z,40.70
2022-08-12T13:00:15.327Z,40.80
2022-08-12T13:02:48.615Z,41.10
2022-08-12T13:05:27.608Z,41.30
2022-08-12T13:08:01.747Z,41.30
2022-08-12T13:10:36.818Z,41.10
2022-08-12T13:14:10.621Z,40.90
2022-08-12T13:15:59.210Z,40.80
2022-08-12T13:18:36.427Z,40.70
2022-08-12T13:21:06.323Z,41.00
2022-08-12T13:23:47.984Z,41.30
2022-08-12T13:26:18.079Z,41.60
2022-08-12T13:28:53.114Z,41.90
2022-08-12T13:31:24.870Z,41.80
2022-08-12T13:34:32.317Z,41.70
2022-08-12T13:36:42.220Z,41.50
2022-08-12T13:39:10.242Z,41.30
2022-08-12T13:41:39.067Z,41.10
2022-08-12T13:44:10.715Z,41.00
2022-08-12T13:46:40.896Z,41.10
2022-08-12T13:49:17.614Z,41.20
2022-08-12T13:52:01.518Z,41.50
2022-08-12T13:54:29.727Z,41.60
2022-08-12T13:56:57.311Z,41.70
2022-08-12T13:59:26.721Z,41.90
2022-08-12T14:01:56.710Z,42.00
2022-08-12T14:04:24.883Z,42.10
2022-08-12T14:06:53.994Z,42.30
2022-08-12T14:09:21.577Z,42.40
2022-08-12T14:11:58.833Z,42.40
2022-08-12T14:14:31.539Z,42.30
2022-08-12T14:17:05.647Z,42.30
2022-08-12T14:19:48.705Z,42.20
2022-08-12T14:22:21.331Z,42.20
2022-08-12T14:24:53.942Z,42.20
2022-08-12T14:28:03.255Z,42.40
2022-08-12T14:30:15.683Z,42.40
2022-08-12T14:32:51.828Z,42.50
2022-08-12T14:35:20.389Z,42.70
2022-08-12T14:37:57.572Z,42.70
2022-08-12T14:40:30.190Z,42.80
2022-08-12T14:43:02.744Z,42.60
2022-08-12T14:45:44.429Z,42.50
2022-08-12T14:48:24.043Z,42.50
2022-08-12T14:51:02.997Z,42.30
2022-08-12T14:59:56.429Z,41.90
2022-08-12T15:02:23.503Z,41.80
2022-08-12T15:04:59.308Z,41.60
2022-08-12T15:07:34.290Z,41.70
2022-08-12T15:10:31.563Z,41.60
2022-08-12T15:13:07.220Z,41.90
2022-08-12T15:15:43.812Z,42.00
2022-08-12T15:18:21.177Z,42.10
2022-08-12T15:20:54.654Z,42.20
2022-08-12T15:23:23.879Z,42.20
2022-08-12T15:26:02.977Z,42.10
2022-08-12T15:28:33.702Z,42.00
2022-08-12T15:31:03.158Z,42.00
2022-08-12T15:33:50.116Z,42.00
2022-08-12T15:36:50.263Z,42.00
2022-08-12T15:39:17.023Z,42.10
2022-08-12T15:41:50.124Z,41.90
2022-08-12T15:44:38.022Z,41.60
2022-08-12T15:47:07.836Z,41.40
2022-08-12T15:49:54.963Z,41.50
2022-08-12T15:52:27.511Z,41.70
2022-08-12T15:54:58.891Z,41.50
2022-08-12T15:57:33.544Z,41.30
2022-08-12T16:00:09.312Z,40.80
2022-08-12T16:02:51.599Z,40.50
2022-08-12T16:06:12.339Z,40.40
2022-08-12T16:08:17.164Z,40.30
2022-08-12T16:10:47.879Z,40.10
2022-08-12T16:13:32.621Z,40.10
2022-08-12T16:16:22.473Z,40.10
2022-08-12T16:19:00.826Z,39.90
2022-08-12T16:21:51.556Z,39.70
2022-08-12T16:24:18.783Z,39.50
2022-08-12T16:26:51.490Z,39.50
2022-08-12T16:29:52.402Z,39.40
2022-08-12T16:32:24.120Z,39.10
2022-08-12T16:34:54.645Z,38.60
2022-08-12T16:37:32.348Z,38.10
2022-08-12T16:40:06.215Z,37.60
2022-08-12T16:42:53.235Z,37.10
2022-08-12T16:45:32.389Z,36.70
2022-08-12T16:48:33.670Z,36.30
2022-08-12T16:51:12.675Z,36.00
2022-08-12T16:53:50.865Z,35.70
2022-08-12T16:56:19.083Z,35.60
2022-08-12T16:58:47.380Z,35.40
2022-08-12T17:01:16.599Z,35.20
2022-08-12T17:04:08.499Z,35.00
2022-08-12T17:06:43.261Z,34.90
2022-08-12T17:09:17.337Z,34.80
2022-08-12T17:11:50.321Z,34.70
2022-08-12T17:14:23.181Z,34.50
2022-08-12T17:16:54.617Z,34.40
2022-08-12T17:20:29.089Z,34.20
2022-08-12T17:22:15.063Z,34.00
2022-08-12T17:24:55.401Z,33.80
2022-08-12T17:27:26.868Z,33.80
2022-08-12T17:30:02.839Z,33.70
2022-08-12T17:32:35.049Z,33.50
2022-08-12T17:35:21.221Z,33.30
2022-08-12T17:37:50.782Z,33.20
2022-08-12T17:40:35.839Z,33.00
2022-08-12T17:43:56.950Z,32.80
2022-08-12T17:45:59.014Z,32.60
2022-08-12T17:48:35.060Z,32.40
2022-08-12T17:51:15.580Z,32.30
2022-08-12T17:54:06.199Z,32.20
2022-08-12T17:56:37.332Z,32.20
2022-08-12T17:59:12.605Z,32.20
2022-08-12T18:01:46.420Z,32.20
2022-08-12T18:04:23.382Z,32.10
2022-08-12T18:07:03.037Z,32.00
2022-08-12T18:09:36.463Z,31.90
2022-08-12T18:12:47.136Z,31.80
2022-08-12T18:15:26.773Z,31.70
2022-08-12T18:18:06.165Z,31.60
2022-08-12T18:20:46.229Z,31.50
2022-08-12T18:23:13.891Z,31.50
2022-08-12T18:26:15.852Z,31.40
2022-08-12T18:28:45.080Z,31.30
2022-08-12T18:31:18.334Z,31.10
2022-08-12T18:33:46.595Z,31.00
2022-08-12T18:36:14.723Z,30.80
2022-08-12T18:38:56.148Z,30.70
2022-08-12T18:41:33.467Z,30.50
2022-08-12T18:44:09.417Z,29.70
2022-08-12T18:46:54.219Z,30.20
2022-08-12T18:49:37.899Z,30.10
2022-08-12T18:52:08.643Z,30.00
2022-08-12T18:54:54.907Z,29.90
2022-08-12T18:58:06.825Z,29.80
2022-08-12T19:00:22.249Z,29.70
2022-08-12T19:02:54.476Z,29.50
2022-08-12T19:05:25.461Z,29.40
2022-08-12T19:08:14.103Z,29.30
2022-08-12T19:10:50.076Z,29.20
2022-08-12T19:13:38.530Z,29.10
2022-08-12T19:16:12.415Z,29.00
2022-08-12T19:18:45.153Z,28.90
2022-08-12T19:21:16.838Z,28.90
2022-08-12T19:24:08.916Z,28.80
2022-08-12T19:26:37.608Z,28.60
2022-08-12T19:29:07.734Z,28.50
2022-08-12T19:31:45.335Z,28.30
2022-08-12T19:35:06.635Z,28.20
2022-08-12T19:37:27.167Z,28.10
2022-08-12T19:40:09.286Z,27.90
2022-08-12T19:42:53.218Z,27.70
2022-08-12T19:45:22.770Z,27.60
2022-08-12T19:47:50.452Z,27.50
2022-08-12T19:50:20.220Z,27.40
2022-08-12T19:52:52.641Z,27.30
2022-08-12T19:55:24.194Z,27.20
2022-08-12T19:58:01.518Z,27.20
2022-08-12T20:00:31.780Z,27.10
2022-08-12T20:03:00.388Z,27.00
2022-08-12T20:06:05.881Z,26.90
2022-08-12T20:08:26.430Z,26.70
2022-08-12T20:12:14.378Z,26.60
2022-08-12T20:14:01.142Z,26.50
2022-08-12T20:16:52.982Z,26.40
2022-08-12T20:19:18.379Z,26.40
2022-08-12T20:21:46.041Z,26.20
2022-08-12T20:24:14.464Z,26.20
2022-08-12T20:26:43.278Z,26.10
2022-08-12T20:29:13.190Z,26.10
2022-08-12T20:31:41.479Z,26.00
2022-08-12T20:34:12.398Z,25.90
2022-08-12T20:36:44.776Z,25.80
2022-08-12T20:39:17.898Z,25.70
2022-08-12T20:42:07.088Z,25.60
2022-08-12T20:44:40.281Z,25.60
2022-08-12T20:47:18.017Z,25.50
2022-08-12T20:49:54.782Z,25.40
2022-08-12T20:52:25.491Z,25.40
2022-08-12T20:54:58.084Z,25.30
2022-08-12T20:57:38.177Z,25.20
2022-08-12T21:00:28.127Z,25.20
2022-08-12T21:03:16.162Z,25.10
2022-08-12T21:06:10.322Z,25.10
2022-08-12T21:08:43.750Z,25.00
2022-08-12T21:11:11.615Z,24.90
2022-08-12T21:13:41.923Z,24.80
2022-08-12T21:16:10.482Z,24.80
2022-08-12T21:18:38.360Z,24.80
2022-08-12T21:21:06.736Z,24.70
2022-08-12T21:23:51.320Z,24.60
2022-08-12T21:26:24.900Z,24.60
2022-08-12T21:29:01.407Z,24.50
2022-08-12T21:32:36.762Z,24.40
2022-08-12T21:34:22.125Z,24.30
2022-08-12T21:36:53.984Z,24.30
2022-08-12T21:39:35.240Z,24.20
2022-08-12T21:42:06.866Z,24.20
2022-08-12T21:45:46.784Z,24.10
2022-08-12T21:47:23.457Z,24.00
2022-08-12T21:50:04.140Z,24.00
2022-08-12T21:52:36.816Z,23.90
2022-08-12T21:55:08.553Z,23.70
2022-08-12T21:57:53.360Z,23.70
2022-08-12T22:00:31.782Z,23.70
2022-08-12T22:04:03.566Z,23.60
2022-08-12T22:06:31.529Z,23.50
2022-08-12T22:09:15.340Z,23.40
2022-08-12T22:11:49.300Z,23.40
2022-08-12T22:14:24.902Z,23.30
2022-08-12T22:16:55.728Z,23.30
2022-08-12T22:19:23.680Z,23.30
2022-08-12T22:21:54.732Z,23.20
2022-08-12T22:24:27.248Z,23.30
2022-08-12T22:27:08.149Z,23.20
2022-08-12T22:30:04.586Z,23.20
2022-08-12T22:32:33.713Z,23.20
2022-08-12T22:35:24.044Z,23.10
2022-08-12T22:37:53.486Z,23.00
2022-08-12T22:40:23.816Z,23.00
2022-08-12T22:43:15.439Z,22.90
2022-08-12T22:46:01.746Z,22.90
2022-08-12T22:48:30.570Z,22.70
2022-08-12T22:50:59.659Z,22.70
2022-08-12T22:53:36.091Z,22.70
2022-08-12T22:56:08.951Z,22.60
2022-08-12T22:58:41.964Z,22.50
2022-08-12T23:01:11.235Z,22.50
2022-08-12T23:03:47.800Z,22.40
2022-08-12T23:06:23.865Z,22.30
2022-08-12T23:08:53.891Z,22.20
2022-08-12T23:11:23.972Z,22.10
2022-08-12T23:13:57.105Z,22.10
2022-08-12T23:16:31.838Z,22.00
2022-08-12T23:19:22.942Z,22.00
2022-08-12T23:22:05.005Z,22.00
2022-08-12T23:24:56.584Z,22.00
2022-08-12T23:27:52.205Z,21.90
2022-08-12T23:30:31.278Z,21.80
2022-08-12T23:33:01.386Z,21.80
2022-08-12T23:35:53.852Z,21.70
2022-08-12T23:38:31.031Z,21.70
2022-08-12T23:41:02.048Z,21.60
2022-08-12T23:43:39.524Z,21.50
2022-08-12T23:46:10.514Z,21.50
2022-08-12T23:48:38.786Z,21.40
2022-08-12T23:51:22.138Z,21.40
2022-08-12T23:54:32.807Z,21.40
2022-08-12T23:57:10.971Z,21.30
2022-08-12T23:59:43.658Z,21.20
